Time;durP1;ratioP1;P1;durP2;ratioP2;P2;SDS_P1;SDS_P2;PMS_P1;PMS_P2;Temp;Humidity;BMP_temperature;BMP_pressure;BME280_temperature;BME280_humidity;BME280_pressure;Samples;Min_cycle;Max_cycle;Signal;HPM_P1;HPM_P2
2022/09/04 00:00:18;;;;;;;6.47;1.63;;;17.10;65.60;;;;;;5039754;28;20053;-47
2022/09/04 00:03:09;;;;;;;4.10;2.28;;;17.00;66.00;;;;;;5045842;28;20052;-55
2022/09/04 00:05:44;;;;;;;6.55;1.90;;;17.00;65.80;;;;;;5037507;28;20048;-56
2022/09/04 00:08:30;;;;;;;3.40;1.63;;;17.00;65.80;;;;;;5050165;28;20069;-55
2022/09/04 00:11:04;;;;;;;3.20;1.60;;;17.00;66.10;;;;;;5032547;28;20094;-45
2022/09/04 00:13:38;;;;;;;5.75;3.10;;;17.00;66.10;;;;;;5047919;28;20044;-55
2022/09/04 00:16:15;;;;;;;2.70;1.58;;;16.90;66.30;;;;;;5036483;28;20107;-46
2022/09/04 00:19:01;;;;;;;4.45;1.80;;;16.80;66.30;;;;;;5031373;28;20047;-55
2022/09/04 00:21:38;;;;;;;6.47;1.63;;;16.80;66.40;;;;;;5036473;28;20123;-55
2022/09/04 00:24:14;;;;;;;4.93;1.65;;;16.80;66.50;;;;;;5035654;28;20045;-53
2022/09/04 00:27:02;;;;;;;4.57;1.45;;;16.80;66.70;;;;;;5031889;28;20045;-55
2022/09/04 00:29:41;;;;;;;4.13;1.60;;;16.80;67.00;;;;;;5045178;28;20069;-55
2022/09/04 00:32:13;;;;;;;4.63;2.35;;;16.70;67.20;;;;;;5028215;28;20555;-54
2022/09/04 00:34:42;;;;;;;4.75;1.83;;;16.70;67.40;;;;;;5024394;28;20050;-55
2022/09/04 00:37:12;;;;;;;3.63;2.17;;;16.70;67.30;;;;;;5027008;28;20049;-55
2022/09/04 00:40:13;;;;;;;5.13;1.88;;;16.70;67.50;;;;;;5045942;28;20531;-56
2022/09/04 00:42:56;;;;;;;3.47;1.55;;;16.70;68.00;;;;;;5017835;28;20067;-55
2022/09/04 00:45:57;;;;;;;3.22;1.80;;;16.60;67.90;;;;;;5036204;28;20045;-55
2022/09/04 00:48:36;;;;;;;6.32;2.20;;;16.60;67.90;;;;;;5015971;28;20042;-56
2022/09/04 00:51:14;;;;;;;4.85;1.70;;;16.50;67.80;;;;;;5031190;28;20496;-55
2022/09/04 00:53:43;;;;;;;6.82;2.05;;;16.50;68.20;;;;;;5033072;28;20060;-55
2022/09/04 00:56:34;;;;;;;4.25;1.80;;;16.50;68.10;;;;;;5037836;28;20146;-54
2022/09/04 00:59:19;;;;;;;5.03;2.03;;;16.40;68.70;;;;;;5015142;28;20101;-54
2022/09/04 01:01:46;;;;;;;3.70;2.03;;;16.40;68.60;;;;;;5036630;28;20103;-55
2022/09/04 01:04:15;;;;;;;4.57;1.80;;;16.40;68.70;;;;;;5049485;28;20446;-55
2022/09/04 01:07:15;;;;;;;5.50;1.98;;;16.40;68.70;;;;;;5031160;28;20057;-54
2022/09/04 01:09:49;;;;;;;3.05;1.60;;;16.40;69.20;;;;;;5040881;28;20047;-53
2022/09/04 01:12:44;;;;;;;5.60;2.47;;;16.30;69.30;;;;;;5040952;28;20041;-53
2022/09/04 01:15:59;;;;;;;3.08;1.90;;;16.30;69.10;;;;;;5029896;28;20443;-46
2022/09/04 01:19:00;;;;;;;5.05;2.00;;;16.30;70.00;;;;;;5001067;28;20628;-47
2022/09/04 01:22:01;;;;;;;3.22;1.75;;;16.20;69.60;;;;;;5015529;28;20049;-49
2022/09/04 01:24:36;;;;;;;5.47;2.05;;;16.20;69.90;;;;;;5028907;28;20424;-45
2022/09/04 01:27:26;;;;;;;4.95;2.28;;;16.20;70.90;;;;;;5030855;28;20091;-45
2022/09/04 01:30:04;;;;;;;4.68;1.70;;;16.20;70.40;;;;;;5037187;28;20795;-45
2022/09/04 01:32:43;;;;;;;5.65;2.10;;;16.10;70.50;;;;;;5032054;28;20083;-48
2022/09/04 01:35:28;;;;;;;3.05;1.80;;;16.10;71.80;;;;;;5054767;28;20201;-56
2022/09/04 01:38:01;;;;;;;4.35;2.13;;;16.00;72.40;;;;;;5041976;28;20522;-55
2022/09/04 01:40:56;;;;;;;3.95;1.70;;;16.00;72.90;;;;;;5029928;28;20125;-55
2022/09/04 01:43:23;;;;;;;3.30;1.92;;;15.90;73.70;;;;;;5022672;28;20087;-48
2022/09/04 01:46:21;;;;;;;2.92;1.73;;;15.80;73.30;;;;;;5031210;28;20518;-49
2022/09/04 01:48:59;;;;;;;4.18;2.30;;;15.80;73.70;;;;;;5010605;28;20067;-50
2022/09/04 01:51:55;;;;;;;3.55;1.83;;;15.80;73.80;;;;;;5019925;28;20052;-48
2022/09/04 01:54:45;;;;;;;5.18;1.95;;;15.70;74.50;;;;;;5033430;28;20090;-44
2022/09/04 01:57:42;;;;;;;4.45;2.00;;;15.70;74.50;;;;;;5046145;28;20058;-48
2022/09/04 02:00:15;;;;;;;3.63;2.10;;;15.70;75.20;;;;;;5030337;28;20151;-46
2022/09/04 02:03:05;;;;;;;7.57;2.40;;;15.70;75.30;;;;;;5030483;28;20507;-47
2022/09/04 02:05:50;;;;;;;4.82;2.20;;;15.70;76.20;;;;;;5034051;28;20049;-45
2022/09/04 02:08:37;;;;;;;3.78;1.92;;;15.60;76.50;;;;;;5031910;28;20057;-46
2022/09/04 02:11:20;;;;;;;4.22;2.17;;;15.50;78.60;;;;;;5053247;28;20508;-44
2022/09/04 02:13:46;;;;;;;4.05;2.05;;;15.50;77.20;;;;;;5040216;28;20038;-45
2022/09/04 02:16:25;;;;;;;5.03;2.10;;;15.40;77.00;;;;;;5049976;28;20029;-46
2022/09/04 02:19:26;;;;;;;4.97;2.05;;;15.40;78.00;;;;;;5035550;28;20084;-47
2022/09/04 02:22:19;;;;;;;6.35;2.50;;;15.40;78.70;;;;;;5051316;28;20076;-45
2022/09/04 02:24:48;;;;;;;5.38;2.50;;;15.40;78.00;;;;;;5048855;28;20415;-45
2022/09/04 02:27:14;;;;;;;3.25;2.17;;;15.40;78.20;;;;;;5007828;28;20474;-46
2022/09/04 02:29:53;;;;;;;5.97;2.30;;;15.40;78.70;;;;;;5053164;28;20053;-46
2022/09/04 02:32:42;;;;;;;5.03;2.42;;;15.40;79.20;;;;;;5046368;28;20565;-49
2022/09/04 02:35:28;;;;;;;4.55;2.20;;;15.30;79.80;;;;;;5025507;28;20177;-46
2022/09/04 02:38:03;;;;;;;5.03;2.30;;;15.30;79.70;;;;;;5035849;28;20124;-48
2022/09/04 02:40:55;;;;;;;6.07;2.83;;;15.30;79.70;;;;;;5045557;28;20041;-45
2022/09/04 02:43:41;;;;;;;;;;;15.30;80.60;;;;;;5012270;28;20714;-48
2022/09/04 02:46:16;;;;;;;6.10;2.28;;;15.30;81.00;;;;;;5010183;28;20008;-44
2022/09/04 02:48:53;;;;;;;5.57;2.22;;;15.30;79.70;;;;;;5031231;28;20084;-46
2022/09/04 02:51:49;;;;;;;5.35;2.10;;;15.30;80.30;;;;;;5014744;28;20049;-49
2022/09/04 02:54:47;;;;;;;6.25;2.30;;;15.20;81.20;;;;;;5030735;28;20040;-46
2022/09/04 02:57:38;;;;;;;4.25;2.28;;;15.20;81.20;;;;;;5020783;28;20452;-46
2022/09/04 03:00:18;;;;;;;3.13;2.13;;;15.20;81.10;;;;;;5049392;28;20504;-46
2022/09/04 03:03:10;;;;;;;5.72;1.95;;;15.10;81.80;;;;;;5032570;28;20055;-50
2022/09/04 03:05:51;;;;;;;4.78;2.35;;;15.10;83.40;;;;;;5029810;28;20143;-48
2022/09/04 03:08:35;;;;;;;4.47;2.10;;;15.10;83.10;;;;;;5034748;28;20124;-53
2022/09/04 03:11:19;;;;;;;3.63;2.28;;;15.00;83.10;;;;;;5026295;28;20057;-55
2022/09/04 03:14:11;;;;;;;4.03;2.35;;;14.90;83.70;;;;;;5033164;28;20076;-53
2022/09/04 03:17:18;;;;;;;3.35;2.33;;;14.90;84.50;;;;;;5029696;28;20037;-52
2022/09/04 03:19:50;;;;;;;6.50;2.30;;;14.90;85.20;;;;;;5008010;28;20053;-45
2022/09/04 03:22:23;;;;;;;5.32;2.28;;;14.90;84.50;;;;;;5042761;28;20049;-46
2022/09/04 03:25:05;;;;;;;5.03;2.42;;;14.90;84.70;;;;;;5033179;28;20049;-48
2022/09/04 03:27:33;;;;;;;5.80;2.53;;;14.90;84.80;;;;;;5041439;28;20056;-46
2022/09/04 03:30:06;;;;;;;4.22;2.42;;;14.80;85.10;;;;;;5042516;28;20507;-46
2022/09/04 03:32:38;;;;;;;4.55;2.45;;;14.80;85.50;;;;;;5031439;28;20044;-45
2022/09/04 03:35:09;;;;;;;5.47;2.45;;;14.80;86.30;;;;;;5043147;28;20577;-56
2022/09/04 03:37:52;;;;;;;4.95;2.10;;;14.70;86.20;;;;;;5007622;28;20466;-55
2022/09/04 03:40:24;;;;;;;5.00;2.45;;;14.70;87.80;;;;;;5040390;28;20049;-55
2022/09/04 03:43:11;;;;;;;4.75;2.42;;;14.70;87.40;;;;;;5038657;28;20087;-54
2022/09/04 03:46:25;;;;;;;7.07;2.95;;;14.60;87.90;;;;;;5048493;28;20045;-55
2022/09/04 03:48:57;;;;;;;4.38;2.90;;;14.60;89.00;;;;;;5035110;28;20477;-56
2022/09/04 03:51:41;;;;;;;6.90;2.40;;;14.60;88.40;;;;;;5047865;28;20566;-55
2022/09/04 03:54:16;;;;;;;4.43;2.55;;;14.50;89.40;;;;;;5034938;28;20542;-52
2022/09/04 03:57:10;;;;;;;5.25;2.80;;;14.50;90.10;;;;;;5033135;28;20568;-54
2022/09/04 04:00:10;;;;;;;6.15;2.65;;;14.60;90.20;;;;;;5032284;28;20459;-56
2022/09/04 04:02:48;;;;;;;5.43;2.58;;;14.50;90.30;;;;;;5046430;28;20106;-57
2022/09/04 04:05:20;;;;;;;6.40;2.78;;;14.50;90.30;;;;;;5049726;28;20053;-47
2022/09/04 04:08:04;;;;;;;6.78;3.03;;;14.40;90.50;;;;;;5051318;28;20056;-46
2022/09/04 04:10:46;;;;;;;3.85;2.50;;;14.40;91.30;;;;;;5027300;28;20049;-46
2022/09/04 04:13:44;;;;;;;9.60;3.17;;;14.40;91.00;;;;;;5035895;28;20127;-47
2022/09/04 04:16:51;;;;;;;6.80;3.47;;;14.40;91.20;;;;;;5031596;28;20048;-46
2022/09/04 04:19:51;;;;;;;6.38;2.92;;;14.30;91.10;;;;;;4996544;28;20151;-56
2022/09/04 04:23:04;;;;;;;3.67;3.10;;;14.30;91.40;;;;;;5030979;28;20049;-55
2022/09/04 04:25:33;;;;;;;5.47;2.97;;;14.30;91.90;;;;;;5044594;28;20041;-48
2022/09/04 04:28:21;;;;;;;5.50;3.15;;;14.30;92.00;;;;;;5059520;28;20044;-47
2022/09/04 04:30:53;;;;;;;4.82;2.97;;;14.30;92.30;;;;;;5027744;28;20060;-48
2022/09/04 04:33:19;;;;;;;7.45;3.67;;;14.30;92.60;;;;;;5027827;28;20034;-47
2022/09/04 04:36:27;;;;;;;4.93;3.10;;;14.30;92.40;;;;;;5047840;28;20099;-46
2022/09/04 04:39:13;;;;;;;5.32;2.70;;;14.20;93.30;;;;;;5036330;28;20057;-46
2022/09/04 04:42:04;;;;;;;6.85;3.10;;;14.20;93.10;;;;;;5047281;28;20456;-44
2022/09/04 04:47:39;;;;;;;6.50;3.20;;;14.10;93.60;;;;;;5047573;28;20046;-46
2022/09/04 04:50:27;;;;;;;7.45;3.35;;;14.10;94.00;;;;;;5052473;28;20110;-55
2022/09/04 04:53:15;;;;;;;5.03;3.28;;;14.10;94.10;;;;;;5033889;28;20559;-55
2022/09/04 04:55:54;;;;;;;5.78;3.30;;;14.10;94.30;;;;;;5031098;28;20072;-54
2022/09/04 04:58:44;;;;;;;9.00;3.78;;;14.10;94.70;;;;;;5036512;28;20045;-54
2022/09/04 05:01:45;;;;;;;6.32;3.47;;;14.10;94.90;;;;;;5049690;28;20123;-54
2022/09/04 05:04:39;;;;;;;6.93;3.22;;;14.10;95.40;;;;;;5034773;28;20477;-53
2022/09/04 05:07:17;;;;;;;5.53;2.90;;;14.10;96.00;;;;;;5036580;28;20052;-56
2022/09/04 05:09:57;;;;;;;9.07;3.35;;;14.00;96.10;;;;;;5057835;28;20053;-54
2022/09/04 05:12:47;;;;;;;7.40;3.53;;;14.10;96.00;;;;;;5038663;28;20116;-54
2022/09/04 05:15:39;;;;;;;6.25;3.63;;;14.10;96.30;;;;;;5032758;28;20113;-55
2022/09/04 05:18:17;;;;;;;7.35;3.40;;;14.10;96.30;;;;;;5028578;28;20041;-54
2022/09/04 05:20:55;;;;;;;7.85;3.42;;;14.10;96.90;;;;;;5035980;28;20071;-54
2022/09/04 05:23:42;;;;;;;8.25;3.38;;;14.10;97.20;;;;;;5040241;28;20049;-54
2022/09/04 05:26:32;;;;;;;5.05;3.33;;;14.10;97.20;;;;;;5038884;28;20494;-56
2022/09/04 05:29:37;;;;;;;4.10;3.20;;;14.20;97.80;;;;;;5037781;28;20585;-56
2022/09/04 05:32:18;;;;;;;4.82;3.30;;;14.30;97.90;;;;;;5047651;28;20590;-56
2022/09/04 05:35:15;;;;;;;5.97;3.37;;;14.30;98.20;;;;;;5046588;28;20045;-56
2022/09/04 05:37:59;;;;;;;5.35;3.47;;;14.40;98.00;;;;;;5047375;28;20124;-57
2022/09/04 05:40:48;;;;;;;8.32;5.72;;;14.40;98.10;;;;;;5038962;28;20562;-56
2022/09/04 05:43:33;;;;;;;8.02;3.58;;;14.50;98.20;;;;;;5024643;28;20044;-56
2022/09/04 05:46:21;;;;;;;6.40;3.33;;;14.60;98.10;;;;;;5053706;28;20064;-55
2022/09/04 05:48:50;;;;;;;9.70;6.30;;;14.70;98.10;;;;;;5048056;28;20538;-57
2022/09/04 05:51:47;;;;;;;7.90;3.85;;;14.90;98.00;;;;;;5038477;28;20057;-46
2022/09/04 05:54:31;;;;;;;6.25;4.00;;;15.00;97.60;;;;;;5043789;28;20062;-47
2022/09/04 05:57:09;;;;;;;6.93;3.50;;;15.20;97.40;;;;;;5036741;28;20048;-46
2022/09/04 06:00:02;;;;;;;6.38;3.03;;;15.20;97.00;;;;;;5038939;28;20151;-47
2022/09/04 06:03:04;;;;;;;6.13;3.15;;;15.40;96.70;;;;;;5031406;28;20056;-46
2022/09/04 06:06:11;;;;;;;6.22;3.33;;;15.60;96.60;;;;;;5032523;28;20056;-49
2022/09/04 06:08:42;;;;;;;6.07;3.40;;;15.70;96.50;;;;;;5034681;28;20427;-46
2022/09/04 06:11:27;;;;;;;8.63;5.93;;;15.90;96.60;;;;;;5036129;28;20064;-46
2022/09/04 06:14:27;;;;;;;8.43;3.58;;;16.00;95.70;;;;;;5038812;28;20047;-45
2022/09/04 06:17:00;;;;;;;4.70;3.33;;;16.10;95.50;;;;;;5044670;28;20045;-48
2022/09/04 06:19:32;;;;;;;5.93;2.90;;;16.20;95.90;;;;;;5042515;28;20522;-56
2022/09/04 06:22:27;;;;;;;5.45;3.13;;;16.40;95.70;;;;;;5039218;28;20408;-56
2022/09/04 06:25:24;;;;;;;6.13;3.05;;;16.50;95.60;;;;;;5047988;28;20056;-56
2022/09/04 06:28:12;;;;;;;3.90;2.50;;;16.60;94.70;;;;;;5037470;28;20049;-57
2022/09/04 06:30:56;;;;;;;8.27;3.60;;;16.60;94.80;;;;;;5032206;28;20049;-56
2022/09/04 06:33:54;;;;;;;26.50;20.83;;;16.70;94.80;;;;;;5035737;28;20425;-58
2022/09/04 06:36:23;;;;;;;40.35;36.10;;;16.80;94.40;;;;;;5032755;28;20050;-59
2022/09/04 06:39:17;;;;;;;17.95;14.77;;;17.00;94.50;;;;;;5036770;28;20501;-58
2022/09/04 06:42:10;;;;;;;37.00;33.00;;;17.20;93.90;;;;;;5052207;28;20531;-58
2022/09/04 06:45:19;;;;;;;30.90;27.63;;;17.30;93.60;;;;;;5016451;28;20294;-45
2022/09/04 06:48:08;;;;;;;20.38;15.23;;;17.60;93.70;;;;;;4996069;28;20046;-50
2022/09/04 06:51:03;;;;;;;34.90;31.27;;;17.70;92.40;;;;;;5019250;28;20776;-46
2022/09/04 06:53:42;;;;;;;11.88;5.00;;;17.90;92.90;;;;;;5041778;28;20527;-46
2022/09/04 06:56:46;;;;;;;9.85;6.57;;;18.10;93.50;;;;;;5049365;28;20140;-48
2022/09/04 06:59:41;;;;;;;11.05;8.57;;;18.30;91.70;;;;;;5042455;28;20040;-58
2022/09/04 07:02:34;;;;;;;13.40;9.32;;;18.70;91.40;;;;;;4988332;28;20049;-58
2022/09/04 07:05:43;;;;;;;113.55;101.78;;;18.80;92.00;;;;;;5034522;28;20048;-57
2022/09/04 07:08:36;;;;;;;57.83;51.65;;;19.20;91.40;;;;;;5036014;28;20071;-58
2022/09/04 07:11:30;;;;;;;23.70;20.50;;;19.50;90.50;;;;;;5048496;28;20052;-58
2022/09/04 07:14:18;;;;;;;10.68;7.00;;;19.70;89.10;;;;;;5045673;28;20041;-57
2022/09/04 07:17:00;;;;;;;6.32;3.65;;;19.90;90.40;;;;;;5049073;28;20048;-58
2022/09/04 07:19:36;;;;;;;10.43;5.22;;;20.30;89.00;;;;;;5032572;28;20087;-59
2022/09/04 07:22:14;;;;;;;11.10;6.88;;;20.70;88.60;;;;;;5032556;28;20496;-47
2022/09/04 07:24:59;;;;;;;7.25;4.80;;;20.90;87.20;;;;;;5027822;28;20063;-46
2022/09/04 07:27:43;;;;;;;7.60;4.75;;;21.10;84.20;;;;;;5042543;28;20063;-46
2022/09/04 07:30:21;;;;;;;5.78;3.92;;;21.10;82.00;;;;;;5027985;28;20171;-44
2022/09/04 07:32:56;;;;;;;8.73;7.20;;;21.50;81.60;;;;;;5039427;28;20052;-45
2022/09/04 07:35:41;;;;;;;8.55;4.18;;;21.70;80.80;;;;;;5042350;28;20552;-43
2022/09/04 07:38:23;;;;;;;8.23;6.03;;;22.10;81.10;;;;;;5023257;28;20056;-60
2022/09/04 07:41:15;;;;;;;6.60;2.50;;;22.40;79.00;;;;;;5041729;28;20052;-59
2022/09/04 07:43:41;;;;;;;;;;;22.70;77.50;;;;;;5024303;28;20041;-60
2022/09/04 07:46:24;;;;;;;15.05;12.07;;;23.00;76.80;;;;;;5043950;28;19927;-60
2022/09/04 07:49:08;;;;;;;6.97;4.15;;;23.40;76.70;;;;;;5026898;28;20049;-60
2022/09/04 07:51:52;;;;;;;8.60;5.40;;;23.70;76.00;;;;;;5033134;28;20056;-60
2022/09/04 07:54:24;;;;;;;9.82;8.23;;;23.60;72.70;;;;;;5050995;28;20049;-60
2022/09/04 07:57:28;;;;;;;4.43;2.80;;;23.90;72.90;;;;;;5049345;28;20124;-59
2022/09/04 08:00:24;;;;;;;5.68;2.72;;;24.20;71.60;;;;;;5035317;28;20661;-60
2022/09/04 08:03:17;;;;;;;9.82;8.75;;;24.10;70.90;;;;;;5038180;28;20055;-59
2022/09/04 08:05:56;;;;;;;8.55;3.20;;;24.30;70.20;;;;;;5015895;28;20041;-58
2022/09/04 08:09:00;;;;;;;4.40;2.20;;;24.60;69.50;;;;;;5046701;28;20111;-58
2022/09/04 08:11:48;;;;;;;4.75;2.25;;;25.10;69.00;;;;;;5033162;28;20044;-59
2022/09/04 08:14:36;;;;;;;5.28;2.00;;;25.30;67.10;;;;;;5035314;28;20329;-60
2022/09/04 08:17:37;;;;;;;4.65;2.45;;;25.30;67.80;;;;;;5029329;28;20395;-59
2022/09/04 08:20:28;;;;;;;4.22;2.30;;;25.30;66.00;;;;;;5046604;28;20095;-59
2022/09/04 08:23:04;;;;;;;3.47;2.15;;;25.20;66.40;;;;;;5030246;28;21420;-60
2022/09/04 08:26:07;;;;;;;5.50;2.00;;;25.20;66.50;;;;;;5038501;28;20037;-59
2022/09/04 08:29:12;;;;;;;4.05;1.95;;;25.50;65.30;;;;;;5044042;28;20041;-59
2022/09/04 08:32:18;;;;;;;5.32;2.08;;;26.20;65.10;;;;;;5033275;28;20059;-60
2022/09/04 08:35:13;;;;;;;5.20;1.98;;;26.30;63.70;;;;;;5026306;28;20211;-60
2022/09/04 08:37:57;;;;;;;5.53;2.00;;;26.50;63.70;;;;;;5029398;28;20049;-59
2022/09/04 08:40:51;;;;;;;2.97;1.80;;;26.70;63.90;;;;;;5035541;28;20559;-60
2022/09/04 08:43:38;;;;;;;30.20;27.42;;;26.90;61.80;;;;;;5031953;28;20048;-61
2022/09/04 08:46:12;;;;;;;4.85;3.03;;;26.90;60.60;;;;;;5033094;28;20076;-61
2022/09/04 08:48:50;;;;;;;6.63;3.58;;;26.70;61.00;;;;;;5027038;28;20049;-61
2022/09/04 08:51:38;;;;;;;6.45;4.10;;;26.80;61.00;;;;;;5033506;28;20614;-61
2022/09/04 08:54:53;;;;;;;6.63;5.10;;;27.00;61.00;;;;;;5028963;28;20044;-61
2022/09/04 08:58:07;;;;;;;6.72;4.97;;;27.30;60.90;;;;;;5033461;28;20070;-61
2022/09/04 09:00:41;;;;;;;6.35;2.22;;;27.40;60.30;;;;;;5024218;28;20171;-60
2022/09/04 09:03:33;;;;;;;6.03;2.88;;;28.00;59.40;;;;;;5033576;28;20051;-61
2022/09/04 09:06:08;;;;;;;4.40;3.33;;;28.20;59.70;;;;;;5039953;28;20837;-61
2022/09/04 09:08:56;;;;;;;5.95;3.55;;;28.30;58.80;;;;;;5032053;28;20859;-61
2022/09/04 09:11:40;;;;;;;4.78;1.85;;;28.50;58.10;;;;;;5030603;28;20084;-61
2022/09/04 09:14:18;;;;;;;2.78;1.52;;;28.80;58.00;;;;;;5032383;28;20427;-60
2022/09/04 09:17:22;;;;;;;4.43;2.70;;;28.70;58.40;;;;;;5038117;28;20498;-61
2022/09/04 09:20:06;;;;;;;18.95;17.05;;;28.90;56.00;;;;;;5029370;28;20041;-61
2022/09/04 09:23:09;;;;;;;7.80;5.15;;;29.00;56.10;;;;;;5033432;28;20041;-61
2022/09/04 09:25:50;;;;;;;5.85;2.78;;;29.50;55.20;;;;;;5035571;28;20230;-61
2022/09/04 09:28:22;;;;;;;6.75;2.13;;;29.60;54.40;;;;;;5050395;28;20075;-61
2022/09/04 09:31:16;;;;;;;6.65;5.88;;;29.50;54.80;;;;;;5049640;28;20047;-61
2022/09/04 09:34:13;;;;;;;3.58;1.85;;;29.70;53.50;;;;;;5034157;28;20167;-61
2022/09/04 09:37:01;;;;;;;5.28;2.15;;;29.80;53.40;;;;;;5010799;28;20380;-61
2022/09/04 09:39:48;;;;;;;5.82;4.45;;;30.10;53.90;;;;;;5029393;28;20192;-61
2022/09/04 09:42:36;;;;;;;3.22;1.73;;;30.00;54.00;;;;;;5037339;28;20382;-61
2022/09/04 09:45:11;;;;;;;3.63;1.63;;;30.10;52.30;;;;;;5029303;28;20068;-61
2022/09/04 09:47:59;;;;;;;4.97;2.05;;;30.40;53.00;;;;;;5023103;28;20046;-61
2022/09/04 09:50:48;;;;;;;4.50;3.83;;;30.60;51.70;;;;;;5029303;28;20044;-61
2022/09/04 09:53:48;;;;;;;3.90;1.80;;;30.80;51.20;;;;;;5021988;28;20052;-61
2022/09/04 09:56:17;;;;;;;6.88;2.85;;;30.40;50.80;;;;;;5040688;28;20102;-60
2022/09/04 09:59:14;;;;;;;6.40;1.70;;;30.70;51.50;;;;;;5029173;28;20073;-61
2022/09/04 10:01:47;;;;;;;4.63;3.08;;;30.90;51.10;;;;;;5032399;28;20048;-43
2022/09/04 10:04:42;;;;;;;6.70;2.92;;;31.10;51.30;;;;;;5028057;28;20056;-44
2022/09/04 10:07:21;;;;;;;4.50;2.22;;;31.50;49.60;;;;;;5043646;28;20084;-61
2022/09/04 10:10:24;;;;;;;3.97;2.33;;;31.10;49.40;;;;;;5027831;28;20064;-61
2022/09/04 10:12:53;;;;;;;4.95;2.40;;;31.00;48.50;;;;;;5032446;28;20048;-43
2022/09/04 10:15:51;;;;;;;3.95;2.17;;;30.90;50.30;;;;;;5045542;28;20048;-44
2022/09/04 10:18:21;;;;;;;4.93;2.60;;;31.20;49.60;;;;;;5045594;28;20049;-46
2022/09/04 10:21:34;;;;;;;5.65;3.90;;;31.40;49.40;;;;;;5028242;28;20553;-44
2022/09/04 10:24:24;;;;;;;6.65;3.95;;;31.60;48.70;;;;;;5028249;28;20080;-44
2022/09/04 10:27:13;;;;;;;3.38;1.42;;;32.00;48.30;;;;;;5031709;28;20427;-46
2022/09/04 10:29:43;;;;;;;4.28;2.30;;;31.60;48.70;;;;;;5028951;28;20069;-46
2022/09/04 10:32:31;;;;;;;7.78;2.15;;;31.60;48.60;;;;;;5027587;28;20037;-45
2022/09/04 10:34:58;;;;;;;2.75;1.65;;;31.60;48.00;;;;;;5028439;28;20476;-43
2022/09/04 10:37:40;;;;;;;3.40;1.70;;;31.70;48.90;;;;;;5012575;28;20765;-60
2022/09/04 10:40:42;;;;;;;4.40;1.92;;;31.30;48.50;;;;;;5029194;28;20045;-60
2022/09/04 10:43:35;;;;;;;4.88;1.58;;;31.60;48.90;;;;;;5031567;28;20509;-60
2022/09/04 10:46:25;;;;;;;4.10;3.00;;;31.30;48.90;;;;;;5032608;28;20442;-59
2022/09/04 10:49:21;;;;;;;5.93;4.38;;;31.60;49.60;;;;;;5028476;28;20159;-60
2022/09/04 10:52:15;;;;;;;5.13;4.28;;;31.80;48.60;;;;;;5036992;28;20382;-60
2022/09/04 10:54:57;;;;;;;7.72;3.65;;;31.30;48.80;;;;;;5034813;28;20424;-60
2022/09/04 10:57:41;;;;;;;11.38;10.20;;;31.60;48.90;;;;;;5027509;28;20040;-60
2022/09/04 11:00:10;;;;;;;4.45;3.17;;;31.00;49.40;;;;;;5028589;28;20056;-42
2022/09/04 11:02:50;;;;;;;3.45;1.67;;;30.90;49.70;;;;;;5028106;28;20048;-43
2022/09/04 11:05:43;;;;;;;8.52;7.40;;;31.30;51.00;;;;;;5045896;28;20055;-47
2022/09/04 11:08:28;;;;;;;3.38;2.75;;;31.90;49.60;;;;;;5042254;28;20073;-42
2022/09/04 11:11:15;;;;;;;3.85;1.65;;;32.20;49.00;;;;;;5032503;28;20048;-43
2022/09/04 11:14:13;;;;;;;6.70;1.60;;;32.30;48.10;;;;;;5035216;28;20560;-45
2022/09/04 11:17:14;;;;;;;3.97;2.38;;;32.30;48.20;;;;;;5028445;28;20098;-46
2022/09/04 11:20:23;;;;;;;4.85;2.03;;;32.10;48.00;;;;;;5033025;28;20101;-54
2022/09/04 11:23:32;;;;;;;1.38;1.10;;;32.20;49.20;;;;;;5042105;28;20048;-56
2022/09/04 11:26:25;;;;;;;3.65;1.52;;;32.50;50.00;;;;;;5037884;28;20041;-54
2022/09/04 11:29:19;;;;;;;3.75;1.48;;;32.70;49.50;;;;;;5037849;28;20443;-54
2022/09/04 11:32:10;;;;;;;3.67;1.63;;;32.60;48.30;;;;;;5038624;28;20476;-54
2022/09/04 11:35:18;;;;;;;1.63;1.27;;;32.80;49.60;;;;;;5039269;28;20040;-54
2022/09/04 11:38:24;;;;;;;3.58;1.35;;;33.70;48.10;;;;;;5034294;28;20092;-52
2022/09/04 11:41:19;;;;;;;3.80;1.95;;;33.70;47.70;;;;;;5037127;28;20163;-56
2022/09/04 11:43:54;;;;;;;3.30;1.38;;;33.50;47.10;;;;;;5040841;28;20423;-54
2022/09/04 11:46:27;;;;;;;3.97;2.10;;;33.70;46.50;;;;;;5042611;28;20057;-55
2022/09/04 11:49:14;;;;;;;3.45;1.55;;;33.70;47.70;;;;;;5041696;28;20048;-55
2022/09/04 11:52:01;;;;;;;2.25;1.50;;;33.50;46.70;;;;;;5038977;28;20053;-55
2022/09/04 11:54:40;;;;;;;2.20;1.20;;;33.80;46.30;;;;;;5038747;28;20051;-56
2022/09/04 11:57:26;;;;;;;8.55;1.67;;;34.30;46.50;;;;;;5043145;28;20059;-55
2022/09/04 12:00:13;;;;;;;4.28;1.48;;;34.00;45.20;;;;;;5040171;28;20094;-56
2022/09/04 12:02:49;;;;;;;2.35;1.25;;;34.00;46.30;;;;;;5041382;28;20056;-56
2022/09/04 12:05:40;;;;;;;3.05;1.75;;;33.90;45.90;;;;;;5039168;28;20053;-55
2022/09/04 12:08:34;;;;;;;3.15;1.58;;;34.00;47.20;;;;;;5057203;28;20349;-59
2022/09/04 12:11:32;;;;;;;4.88;1.80;;;34.10;46.90;;;;;;5023589;28;20662;-56
2022/09/04 12:14:21;;;;;;;3.03;1.30;;;33.00;45.40;;;;;;5044508;28;20432;-56
2022/09/04 12:17:13;;;;;;;4.10;1.30;;;33.70;46.30;;;;;;5012884;28;20064;-54
2022/09/04 12:19:52;;;;;;;3.45;1.50;;;33.40;46.00;;;;;;5035568;28;20057;-56
2022/09/04 12:23:03;;;;;;;2.70;1.58;;;33.20;46.10;;;;;;5059483;28;20388;-44
2022/09/04 12:25:42;;;;;;;4.07;1.30;;;33.40;46.40;;;;;;5029586;28;20080;-46
2022/09/04 12:28:38;;;;;;;7.20;6.50;;;33.80;46.50;;;;;;5024479;28;20339;-43
2022/09/04 12:31:36;;;;;;;4.82;1.60;;;33.60;46.40;;;;;;5047934;28;20563;-45
2022/09/04 12:34:03;;;;;;;3.00;1.60;;;33.40;46.20;;;;;;4999125;28;20046;-43
2022/09/04 12:36:47;;;;;;;3.72;2.00;;;33.40;46.40;;;;;;5032981;28;20049;-46
2022/09/04 12:39:47;;;;;;;3.10;1.55;;;33.20;45.80;;;;;;5037967;28;20057;-48
2022/09/04 12:42:44;;;;;;;2.73;1.60;;;33.40;45.90;;;;;;5042396;28;20040;-44
2022/09/04 12:45:17;;;;;;;3.00;1.40;;;33.20;46.10;;;;;;5018169;28;20067;-44
2022/09/04 12:47:50;;;;;;;4.10;1.65;;;33.40;46.10;;;;;;5034270;28;20067;-42
2022/09/04 12:50:28;;;;;;;2.70;1.70;;;33.20;45.80;;;;;;5031038;28;20064;-43
2022/09/04 12:53:05;;;;;;;10.73;9.70;;;33.70;46.40;;;;;;5025789;28;20041;-45
2022/09/04 12:56:09;;;;;;;7.80;7.05;;;33.80;45.60;;;;;;5031219;28;20051;-48
2022/09/04 12:58:53;;;;;;;3.22;2.15;;;34.10;45.20;;;;;;5030479;28;20040;-43
2022/09/04 13:01:47;;;;;;;1.73;1.40;;;33.80;45.00;;;;;;5025689;28;20131;-45
2022/09/04 13:04:27;;;;;;;2.50;1.60;;;33.70;44.40;;;;;;5015275;28;20497;-42
2022/09/04 13:07:24;;;;;;;4.03;1.52;;;33.70;44.70;;;;;;5028123;28;20100;-44
2022/09/04 13:09:58;;;;;;;3.38;1.48;;;33.70;45.00;;;;;;5036878;28;20769;-46
2022/09/04 13:12:41;;;;;;;2.85;1.88;;;33.90;44.40;;;;;;5033587;28;20190;-44
2022/09/04 13:15:28;;;;;;;4.15;1.73;;;34.50;44.50;;;;;;5033963;28;20049;-43
2022/09/04 13:18:21;;;;;;;4.55;1.80;;;34.70;44.20;;;;;;5005031;28;20044;-44
2022/09/04 13:21:24;;;;;;;5.03;1.50;;;34.70;43.90;;;;;;5048981;28;20592;-46
2022/09/04 13:24:07;;;;;;;2.95;1.20;;;35.00;43.80;;;;;;5028455;28;20052;-45
2022/09/04 13:26:50;;;;;;;4.22;1.60;;;35.00;42.80;;;;;;5049793;28;20060;-43
2022/09/04 13:29:39;;;;;;;4.43;1.65;;;34.40;43.90;;;;;;5047224;28;20040;-43
2022/09/04 13:32:26;;;;;;;5.70;1.95;;;34.50;43.60;;;;;;5012468;28;20765;-49
2022/09/04 13:35:08;;;;;;;4.57;1.92;;;34.50;43.80;;;;;;5047484;28;20242;-44
2022/09/04 13:37:53;;;;;;;2.65;1.88;;;34.60;43.60;;;;;;5046984;28;20041;-54
2022/09/04 13:41:04;;;;;;;2.40;1.45;;;34.80;43.50;;;;;;5045294;28;20144;-55
2022/09/04 13:44:03;;;;;;;3.45;1.60;;;34.70;43.50;;;;;;5027417;28;20045;-55
2022/09/04 13:46:37;;;;;;;3.65;1.80;;;34.90;44.50;;;;;;5038525;28;20133;-52
2022/09/04 13:49:14;;;;;;;3.00;1.40;;;35.00;42.90;;;;;;5031582;28;20118;-56
2022/09/04 13:51:58;;;;;;;41.60;37.90;;;34.90;43.10;;;;;;5057240;28;20040;-57
2022/09/04 13:54:33;;;;;;;19.80;17.70;;;34.80;43.40;;;;;;5022192;28;20891;-57
2022/09/04 13:57:13;;;;;;;5.57;3.85;;;34.90;43.80;;;;;;5042830;28;20175;-57
2022/09/04 13:59:43;;;;;;;8.65;6.78;;;35.10;43.40;;;;;;5048858;28;20053;-57
2022/09/04 14:02:13;;;;;;;4.60;2.93;;;34.90;43.50;;;;;;5031420;28;20044;-57
2022/09/04 14:04:49;;;;;;;4.40;2.08;;;34.90;43.70;;;;;;5046500;28;20666;-57
2022/09/04 14:07:53;;;;;;;2.70;1.80;;;34.90;43.20;;;;;;5048292;28;20052;-57
2022/09/04 14:10:48;;;;;;;6.90;2.15;;;34.40;42.60;;;;;;5046462;28;20052;-58
2022/09/04 14:13:29;;;;;;;2.42;1.75;;;34.30;43.70;;;;;;5035154;28;20238;-45
2022/09/04 14:16:08;;;;;;;3.10;1.77;;;34.00;43.60;;;;;;5050787;28;20355;-47
2022/09/04 14:18:55;;;;;;;7.80;7.03;;;33.70;44.40;;;;;;5031746;28;20909;-44
2022/09/04 14:21:55;;;;;;;4.90;3.35;;;33.70;44.30;;;;;;5047413;28;20079;-45
2022/09/04 14:24:35;;;;;;;2.78;1.48;;;34.10;44.00;;;;;;5029980;28;21180;-45
2022/09/04 14:27:25;;;;;;;3.90;2.10;;;33.80;44.00;;;;;;5033676;28;20053;-45